sensor_id;sensor_type;location;lat;lon;timestamp;temperature;humidity
3300;DHT22;1662;49.310;8.134;2024-02-28T00:02:10;7.40;99.90
3300;DHT22;1662;49.310;8.134;2024-02-28T00:04:36;7.40;99.90
3300;DHT22;1662;49.310;8.134;2024-02-28T00:07:01;7.40;99.90
3300;DHT22;1662;49.310;8.134;2024-02-28T00:09:27;7.40;99.90
3300;DHT22;1662;49.310;8.134;2024-02-28T00:11:55;7.40;99.90
3300;DHT22;1662;49.310;8.134;2024-02-28T00:14:20;7.30;99.90
3300;DHT22;1662;49.310;8.134;2024-02-28T00:16:46;7.40;99.90
3300;DHT22;1662;49.310;8.134;2024-02-28T00:19:13;7.30;99.90
3300;DHT22;1662;49.310;8.134;2024-02-28T00:21:39;7.30;99.90
3300;DHT22;1662;49.310;8.134;2024-02-28T00:24:08;7.30;99.90
3300;DHT22;1662;49.310;8.134;2024-02-28T00:26:40;7.30;99.90
3300;DHT22;1662;49.310;8.134;2024-02-28T00:29:08;7.20;99.90
3300;DHT22;1662;49.310;8.134;2024-02-28T00:31:34;7.20;99.90
3300;DHT22;1662;49.310;8.134;2024-02-28T00:33:59;7.10;99.90
3300;DHT22;1662;49.310;8.134;2024-02-28T00:36:27;7.10;99.90
3300;DHT22;1662;49.310;8.134;2024-02-28T00:38:55;7.00;99.90
3300;DHT22;1662;49.310;8.134;2024-02-28T00:41:25;7.00;99.90
3300;DHT22;1662;49.310;8.134;2024-02-28T00:43:51;7.00;99.90
3300;DHT22;1662;49.310;8.134;2024-02-28T00:46:16;7.00;99.90
3300;DHT22;1662;49.310;8.134;2024-02-28T00:48:42;6.90;99.90
3300;DHT22;1662;49.310;8.134;2024-02-28T00:51:08;6.90;99.90
3300;DHT22;1662;49.310;8.134;2024-02-28T00:53:34;6.90;99.90
3300;DHT22;1662;49.310;8.134;2024-02-28T00:55:59;6.90;99.90
3300;DHT22;1662;49.310;8.134;2024-02-28T00:58:25;6.90;99.90
3300;DHT22;1662;49.310;8.134;2024-02-28T01:00:53;7.00;99.90
3300;DHT22;1662;49.310;8.134;2024-02-28T01:03:19;7.00;99.90
3300;DHT22;1662;49.310;8.134;2024-02-28T01:05:45;6.90;99.90
3300;DHT22;1662;49.310;8.134;2024-02-28T01:08:12;6.90;99.90
3300;DHT22;1662;49.310;8.134;2024-02-28T01:10:37;6.90;99.90
3300;DHT22;1662;49.310;8.134;2024-02-28T01:13:03;6.80;99.90
3300;DHT22;1662;49.310;8.134;2024-02-28T01:15:29;6.90;99.90
3300;DHT22;1662;49.310;8.134;2024-02-28T01:17:55;6.80;99.90
3300;DHT22;1662;49.310;8.134;2024-02-28T01:20:21;6.80;99.90
3300;DHT22;1662;49.310;8.134;2024-02-28T01:22:46;6.90;99.90
3300;DHT22;1662;49.310;8.134;2024-02-28T01:25:13;6.90;99.90
3300;DHT22;1662;49.310;8.134;2024-02-28T01:27:38;6.90;99.90
3300;DHT22;1662;49.310;8.134;2024-02-28T01:30:04;6.90;99.90
3300;DHT22;1662;49.310;8.134;2024-02-28T01:32:30;6.80;99.90
3300;DHT22;1662;49.310;8.134;2024-02-28T01:34:59;6.80;99.90
3300;DHT22;1662;49.310;8.134;2024-02-28T01:37:24;6.70;99.90
3300;DHT22;1662;49.310;8.134;2024-02-28T01:39:50;6.60;99.90
3300;DHT22;1662;49.310;8.134;2024-02-28T01:42:15;6.60;99.90
3300;DHT22;1662;49.310;8.134;2024-02-28T01:44:54;6.60;99.90
3300;DHT22;1662;49.310;8.134;2024-02-28T01:47:20;6.60;99.90
3300;DHT22;1662;49.310;8.134;2024-02-28T01:49:47;6.50;99.90
3300;DHT22;1662;49.310;8.134;2024-02-28T01:52:13;6.50;99.90
3300;DHT22;1662;49.310;8.134;2024-02-28T01:54:41;6.40;99.90
3300;DHT22;1662;49.310;8.134;2024-02-28T01:57:07;6.40;99.90
3300;DHT22;1662;49.310;8.134;2024-02-28T01:59:33;6.40;99.90
3300;DHT22;1662;49.310;8.134;2024-02-28T02:02:02;6.30;99.90
3300;DHT22;1662;49.310;8.134;2024-02-28T02:04:30;6.30;99.90
3300;DHT22;1662;49.310;8.134;2024-02-28T02:06:59;6.30;99.90
3300;DHT22;1662;49.310;8.134;2024-02-28T02:09:26;6.20;99.90
3300;DHT22;1662;49.310;8.134;2024-02-28T02:11:54;6.20;99.90
3300;DHT22;1662;49.310;8.134;2024-02-28T02:14:19;6.20;99.90
3300;DHT22;1662;49.310;8.134;2024-02-28T02:16:45;6.20;99.90
3300;DHT22;1662;49.310;8.134;2024-02-28T02:19:10;6.10;99.90
3300;DHT22;1662;49.310;8.134;2024-02-28T02:21:49;6.10;99.90
3300;DHT22;1662;49.310;8.134;2024-02-28T02:24:16;6.10;99.90
3300;DHT22;1662;49.310;8.134;2024-02-28T02:26:41;6.10;99.90
3300;DHT22;1662;49.310;8.134;2024-02-28T02:29:10;6.10;99.90
3300;DHT22;1662;49.310;8.134;2024-02-28T02:31:39;6.10;99.90
3300;DHT22;1662;49.310;8.134;2024-02-28T02:34:05;6.00;99.90
3300;DHT22;1662;49.310;8.134;2024-02-28T02:36:31;6.00;99.90
3300;DHT22;1662;49.310;8.134;2024-02-28T02:39:02;6.00;99.90
3300;DHT22;1662;49.310;8.134;2024-02-28T02:41:27;6.00;99.90
3300;DHT22;1662;49.310;8.134;2024-02-28T02:43:53;6.10;99.90
3300;DHT22;1662;49.310;8.134;2024-02-28T02:46:19;6.10;99.90
3300;DHT22;1662;49.310;8.134;2024-02-28T02:48:44;6.00;99.90
3300;DHT22;1662;49.310;8.134;2024-02-28T02:51:10;6.00;99.90
3300;DHT22;1662;49.310;8.134;2024-02-28T02:53:38;6.00;99.90
3300;DHT22;1662;49.310;8.134;2024-02-28T02:56:04;6.00;99.90
3300;DHT22;1662;49.310;8.134;2024-02-28T02:58:29;5.90;99.90
3300;DHT22;1662;49.310;8.134;2024-02-28T03:00:58;5.90;99.90
3300;DHT22;1662;49.310;8.134;2024-02-28T03:03:24;5.90;99.90
3300;DHT22;1662;49.310;8.134;2024-02-28T03:05:49;5.90;99.90
3300;DHT22;1662;49.310;8.134;2024-02-28T03:08:15;5.80;99.90
3300;DHT22;1662;49.310;8.134;2024-02-28T03:10:41;5.90;99.90
3300;DHT22;1662;49.310;8.134;2024-02-28T03:13:06;5.80;99.90
3300;DHT22;1662;49.310;8.134;2024-02-28T03:15:35;5.80;99.90
3300;DHT22;1662;49.310;8.134;2024-02-28T03:18:03;5.80;99.90
3300;DHT22;1662;49.310;8.134;2024-02-28T03:20:29;5.80;99.90
3300;DHT22;1662;49.310;8.134;2024-02-28T03:22:55;5.80;99.90
3300;DHT22;1662;49.310;8.134;2024-02-28T03:25:21;5.70;99.90
3300;DHT22;1662;49.310;8.134;2024-02-28T03:27:46;5.70;99.90
3300;DHT22;1662;49.310;8.134;2024-02-28T03:30:12;5.70;99.90
3300;DHT22;1662;49.310;8.134;2024-02-28T03:32:37;5.60;99.90
3300;DHT22;1662;49.310;8.134;2024-02-28T03:35:03;5.60;99.90
3300;DHT22;1662;49.310;8.134;2024-02-28T03:37:31;5.60;99.90
3300;DHT22;1662;49.310;8.134;2024-02-28T03:39:56;5.60;99.90
3300;DHT22;1662;49.310;8.134;2024-02-28T03:42:22;5.60;99.90
3300;DHT22;1662;49.310;8.134;2024-02-28T03:44:50;5.60;99.90
3300;DHT22;1662;49.310;8.134;2024-02-28T03:47:18;5.60;99.90
3300;DHT22;1662;49.310;8.134;2024-02-28T03:49:43;5.60;99.90
3300;DHT22;1662;49.310;8.134;2024-02-28T03:52:09;5.60;99.90
3300;DHT22;1662;49.310;8.134;2024-02-28T03:54:37;5.60;99.90
3300;DHT22;1662;49.310;8.134;2024-02-28T03:57:03;5.60;99.90
3300;DHT22;1662;49.310;8.134;2024-02-28T03:59:31;5.50;99.90
3300;DHT22;1662;49.310;8.134;2024-02-28T04:01:57;5.50;99.90
3300;DHT22;1662;49.310;8.134;2024-02-28T04:04:22;5.40;99.90
3300;DHT22;1662;49.310;8.134;2024-02-28T04:06:48;5.40;99.90
3300;DHT22;1662;49.310;8.134;2024-02-28T04:09:13;5.30;99.90
3300;DHT22;1662;49.310;8.134;2024-02-28T04:11:39;5.30;99.90
3300;DHT22;1662;49.310;8.134;2024-02-28T04:14:04;5.30;99.90
3300;DHT22;1662;49.310;8.134;2024-02-28T04:16:30;5.20;99.90
3300;DHT22;1662;49.310;8.134;2024-02-28T04:18:58;5.30;99.90
3300;DHT22;1662;49.310;8.134;2024-02-28T04:21:23;5.30;99.90
3300;DHT22;1662;49.310;8.134;2024-02-28T04:23:49;5.30;99.90
3300;DHT22;1662;49.310;8.134;2024-02-28T04:26:15;5.30;99.90
3300;DHT22;1662;49.310;8.134;2024-02-28T04:28:42;5.40;99.90
3300;DHT22;1662;49.310;8.134;2024-02-28T04:31:07;5.40;99.90
3300;DHT22;1662;49.310;8.134;2024-02-28T04:33:43;5.40;99.90
3300;DHT22;1662;49.310;8.134;2024-02-28T04:36:09;5.30;99.90
3300;DHT22;1662;49.310;8.134;2024-02-28T04:38:34;5.30;99.90
3300;DHT22;1662;49.310;8.134;2024-02-28T04:41:00;5.30;99.90
3300;DHT22;1662;49.310;8.134;2024-02-28T04:43:26;5.30;99.90
3300;DHT22;1662;49.310;8.134;2024-02-28T04:45:51;5.20;99.90
3300;DHT22;1662;49.310;8.134;2024-02-28T04:48:17;5.20;99.90
3300;DHT22;1662;49.310;8.134;2024-02-28T04:50:42;5.20;99.90
3300;DHT22;1662;49.310;8.134;2024-02-28T04:53:08;5.10;99.90
3300;DHT22;1662;49.310;8.134;2024-02-28T04:55:34;5.10;99.90
3300;DHT22;1662;49.310;8.134;2024-02-28T04:57:59;5.10;99.90
3300;DHT22;1662;49.310;8.134;2024-02-28T05:00:26;5.10;99.90
3300;DHT22;1662;49.310;8.134;2024-02-28T05:02:51;5.10;99.90
3300;DHT22;1662;49.310;8.134;2024-02-28T05:05:17;5.10;99.90
3300;DHT22;1662;49.310;8.134;2024-02-28T05:07:45;5.10;99.90
3300;DHT22;1662;49.310;8.134;2024-02-28T05:10:11;5.10;99.90
3300;DHT22;1662;49.310;8.134;2024-02-28T05:12:37;5.10;99.90
3300;DHT22;1662;49.310;8.134;2024-02-28T05:15:02;5.00;99.90
3300;DHT22;1662;49.310;8.134;2024-02-28T05:17:28;5.00;99.90
3300;DHT22;1662;49.310;8.134;2024-02-28T05:19:56;5.00;99.90
3300;DHT22;1662;49.310;8.134;2024-02-28T05:22:22;5.00;99.90
3300;DHT22;1662;49.310;8.134;2024-02-28T05:24:48;5.00;99.90
3300;DHT22;1662;49.310;8.134;2024-02-28T05:27:13;5.00;99.90
3300;DHT22;1662;49.310;8.134;2024-02-28T05:29:39;4.90;99.90
3300;DHT22;1662;49.310;8.134;2024-02-28T05:32:07;4.80;99.90
3300;DHT22;1662;49.310;8.134;2024-02-28T05:34:35;4.80;99.90
3300;DHT22;1662;49.310;8.134;2024-02-28T05:37:01;4.70;99.90
3300;DHT22;1662;49.310;8.134;2024-02-28T05:39:27;4.70;99.90
3300;DHT22;1662;49.310;8.134;2024-02-28T05:41:56;4.70;99.90
3300;DHT22;1662;49.310;8.134;2024-02-28T05:44:22;4.60;99.90
3300;DHT22;1662;49.310;8.134;2024-02-28T05:46:49;4.60;99.90
3300;DHT22;1662;49.310;8.134;2024-02-28T05:49:15;4.50;99.90
3300;DHT22;1662;49.310;8.134;2024-02-28T05:51:43;4.40;99.90
3300;DHT22;1662;49.310;8.134;2024-02-28T05:54:10;4.40;99.90
3300;DHT22;1662;49.310;8.134;2024-02-28T05:56:35;4.40;99.90
3300;DHT22;1662;49.310;8.134;2024-02-28T05:59:01;4.40;99.90
3300;DHT22;1662;49.310;8.134;2024-02-28T06:01:27;4.30;99.90
3300;DHT22;1662;49.310;8.134;2024-02-28T06:03:52;4.30;99.90
3300;DHT22;1662;49.310;8.134;2024-02-28T06:06:18;4.30;99.90
3300;DHT22;1662;49.310;8.134;2024-02-28T06:08:44;4.30;99.90
3300;DHT22;1662;49.310;8.134;2024-02-28T06:11:09;4.30;99.90
3300;DHT22;1662;49.310;8.134;2024-02-28T06:13:35;4.20;99.90
3300;DHT22;1662;49.310;8.134;2024-02-28T06:16:01;4.20;99.90
3300;DHT22;1662;49.310;8.134;2024-02-28T06:18:31;4.20;99.90
3300;DHT22;1662;49.310;8.134;2024-02-28T06:20:59;4.20;99.90
3300;DHT22;1662;49.310;8.134;2024-02-28T06:23:25;4.30;99.90
3300;DHT22;1662;49.310;8.134;2024-02-28T06:25:50;4.30;99.90
3300;DHT22;1662;49.310;8.134;2024-02-28T06:28:16;4.30;99.90
3300;DHT22;1662;49.310;8.134;2024-02-28T06:30:45;4.40;99.90
3300;DHT22;1662;49.310;8.134;2024-02-28T06:33:12;4.40;99.90
3300;DHT22;1662;49.310;8.134;2024-02-28T06:35:37;4.60;99.90
3300;DHT22;1662;49.310;8.134;2024-02-28T06:38:03;4.70;99.90
3300;DHT22;1662;49.310;8.134;2024-02-28T06:40:32;4.80;99.90
3300;DHT22;1662;49.310;8.134;2024-02-28T06:42:57;4.80;99.90
3300;DHT22;1662;49.310;8.134;2024-02-28T06:45:24;4.80;99.90
3300;DHT22;1662;49.310;8.134;2024-02-28T06:47:52;4.70;99.90
3300;DHT22;1662;49.310;8.134;2024-02-28T06:50:18;4.60;99.90
3300;DHT22;1662;49.310;8.134;2024-02-28T06:52:44;4.60;99.90
3300;DHT22;1662;49.310;8.134;2024-02-28T06:55:09;4.60;99.90
3300;DHT22;1662;49.310;8.134;2024-02-28T06:57:41;4.70;99.90
3300;DHT22;1662;49.310;8.134;2024-02-28T07:00:09;4.70;99.90
3300;DHT22;1662;49.310;8.134;2024-02-28T07:02:35;4.80;99.90
3300;DHT22;1662;49.310;8.134;2024-02-28T07:05:01;4.90;99.90
3300;DHT22;1662;49.310;8.134;2024-02-28T07:07:28;4.90;99.90
3300;DHT22;1662;49.310;8.134;2024-02-28T07:09:54;5.00;99.90
3300;DHT22;1662;49.310;8.134;2024-02-28T07:12:19;5.10;99.90
3300;DHT22;1662;49.310;8.134;2024-02-28T07:14:45;5.10;99.90
3300;DHT22;1662;49.310;8.134;2024-02-28T07:17:10;5.20;99.90
3300;DHT22;1662;49.310;8.134;2024-02-28T07:19:36;5.30;99.90
3300;DHT22;1662;49.310;8.134;2024-02-28T07:22:02;5.30;99.90
3300;DHT22;1662;49.310;8.134;2024-02-28T07:24:29;5.30;99.90
3300;DHT22;1662;49.310;8.134;2024-02-28T07:26:58;5.40;99.90
3300;DHT22;1662;49.310;8.134;2024-02-28T07:29:23;5.40;99.90
3300;DHT22;1662;49.310;8.134;2024-02-28T07:31:52;5.40;99.90
3300;DHT22;1662;49.310;8.134;2024-02-28T07:34:17;5.50;99.90
3300;DHT22;1662;49.310;8.134;2024-02-28T07:36:43;5.50;99.90
3300;DHT22;1662;49.310;8.134;2024-02-28T07:39:09;5.50;99.90
3300;DHT22;1662;49.310;8.134;2024-02-28T07:41:38;5.50;99.90
3300;DHT22;1662;49.310;8.134;2024-02-28T07:44:07;5.60;99.90
3300;DHT22;1662;49.310;8.134;2024-02-28T07:46:35;5.60;99.90
3300;DHT22;1662;49.310;8.134;2024-02-28T07:49:03;5.70;99.90
3300;DHT22;1662;49.310;8.134;2024-02-28T07:51:29;5.70;99.90
3300;DHT22;1662;49.310;8.134;2024-02-28T07:53:55;5.90;99.90
3300;DHT22;1662;49.310;8.134;2024-02-28T07:56:21;5.90;99.90
3300;DHT22;1662;49.310;8.134;2024-02-28T07:58:47;6.00;99.90
3300;DHT22;1662;49.310;8.134;2024-02-28T08:01:13;6.10;99.90
3300;DHT22;1662;49.310;8.134;2024-02-28T08:03:39;6.20;99.90
3300;DHT22;1662;49.310;8.134;2024-02-28T08:06:04;6.20;99.90
3300;DHT22;1662;49.310;8.134;2024-02-28T08:08:30;6.20;99.90
3300;DHT22;1662;49.310;8.134;2024-02-28T08:10:56;6.30;99.90
3300;DHT22;1662;49.310;8.134;2024-02-28T08:13:21;6.30;99.90
3300;DHT22;1662;49.310;8.134;2024-02-28T08:15:49;6.30;99.90
3300;DHT22;1662;49.310;8.134;2024-02-28T08:18:15;6.30;99.90
3300;DHT22;1662;49.310;8.134;2024-02-28T08:20:40;6.20;99.90
3300;DHT22;1662;49.310;8.134;2024-02-28T08:23:06;6.30;99.90
3300;DHT22;1662;49.310;8.134;2024-02-28T08:25:32;6.30;99.90
3300;DHT22;1662;49.310;8.134;2024-02-28T08:27:58;6.30;99.90
3300;DHT22;1662;49.310;8.134;2024-02-28T08:30:24;6.40;99.90
3300;DHT22;1662;49.310;8.134;2024-02-28T08:32:50;6.40;99.90
3300;DHT22;1662;49.310;8.134;2024-02-28T08:35:19;6.40;99.90
3300;DHT22;1662;49.310;8.134;2024-02-28T08:37:45;6.50;99.90
3300;DHT22;1662;49.310;8.134;2024-02-28T08:40:11;6.60;99.90
3300;DHT22;1662;49.310;8.134;2024-02-28T08:42:37;6.60;99.90
3300;DHT22;1662;49.310;8.134;2024-02-28T08:45:03;6.70;99.90
3300;DHT22;1662;49.310;8.134;2024-02-28T08:47:31;6.80;99.90
3300;DHT22;1662;49.310;8.134;2024-02-28T08:49:57;6.80;99.90
3300;DHT22;1662;49.310;8.134;2024-02-28T08:52:22;6.80;99.90
3300;DHT22;1662;49.310;8.134;2024-02-28T08:54:48;7.00;99.90
3300;DHT22;1662;49.310;8.134;2024-02-28T08:57:14;7.00;99.90
3300;DHT22;1662;49.310;8.134;2024-02-28T08:59:40;7.10;99.90
3300;DHT22;1662;49.310;8.134;2024-02-28T09:02:07;7.10;99.90
3300;DHT22;1662;49.310;8.134;2024-02-28T09:04:33;7.10;99.90
3300;DHT22;1662;49.310;8.134;2024-02-28T09:06:59;7.20;99.90
3300;DHT22;1662;49.310;8.134;2024-02-28T09:09:24;7.30;99.90
3300;DHT22;1662;49.310;8.134;2024-02-28T09:11:50;7.30;99.90
3300;DHT22;1662;49.310;8.134;2024-02-28T09:14:16;7.40;99.90
3300;DHT22;1662;49.310;8.134;2024-02-28T09:16:41;7.40;99.90
3300;DHT22;1662;49.310;8.134;2024-02-28T09:19:09;7.50;99.90
3300;DHT22;1662;49.310;8.134;2024-02-28T09:21:35;7.60;99.90
3300;DHT22;1662;49.310;8.134;2024-02-28T09:24:00;7.70;99.90
3300;DHT22;1662;49.310;8.134;2024-02-28T09:26:29;7.80;99.90
3300;DHT22;1662;49.310;8.134;2024-02-28T09:28:55;7.80;99.90
3300;DHT22;1662;49.310;8.134;2024-02-28T09:31:21;7.90;99.90
3300;DHT22;1662;49.310;8.134;2024-02-28T09:33:46;8.00;99.90
3300;DHT22;1662;49.310;8.134;2024-02-28T09:36:14;8.00;99.90
3300;DHT22;1662;49.310;8.134;2024-02-28T09:38:41;8.10;99.90
3300;DHT22;1662;49.310;8.134;2024-02-28T09:41:07;8.10;99.90
3300;DHT22;1662;49.310;8.134;2024-02-28T09:43:40;8.20;99.90
3300;DHT22;1662;49.310;8.134;2024-02-28T09:46:06;8.30;99.90
3300;DHT22;1662;49.310;8.134;2024-02-28T09:48:32;8.30;99.90
3300;DHT22;1662;49.310;8.134;2024-02-28T09:51:00;8.30;99.90
3300;DHT22;1662;49.310;8.134;2024-02-28T09:53:29;8.30;99.90
3300;DHT22;1662;49.310;8.134;2024-02-28T09:55:54;8.30;99.90
3300;DHT22;1662;49.310;8.134;2024-02-28T09:58:20;8.30;99.90
3300;DHT22;1662;49.310;8.134;2024-02-28T10:00:49;8.30;99.90
3300;DHT22;1662;49.310;8.134;2024-02-28T10:03:21;8.40;99.90
3300;DHT22;1662;49.310;8.134;2024-02-28T10:05:49;8.50;99.90
3300;DHT22;1662;49.310;8.134;2024-02-28T10:08:17;8.70;99.90
3300;DHT22;1662;49.310;8.134;2024-02-28T10:10:49;8.80;99.90
3300;DHT22;1662;49.310;8.134;2024-02-28T10:13:20;8.80;99.90
3300;DHT22;1662;49.310;8.134;2024-02-28T10:15:50;8.80;99.90
3300;DHT22;1662;49.310;8.134;2024-02-28T10:18:15;8.80;99.90
3300;DHT22;1662;49.310;8.134;2024-02-28T10:20:44;8.80;99.90
3300;DHT22;1662;49.310;8.134;2024-02-28T10:23:09;8.90;99.90
3300;DHT22;1662;49.310;8.134;2024-02-28T10:25:45;8.90;99.90
3300;DHT22;1662;49.310;8.134;2024-02-28T10:28:14;8.90;99.90
3300;DHT22;1662;49.310;8.134;2024-02-28T10:30:43;8.90;99.90
3300;DHT22;1662;49.310;8.134;2024-02-28T10:33:13;8.90;99.90
3300;DHT22;1662;49.310;8.134;2024-02-28T10:35:43;8.90;99.90
3300;DHT22;1662;49.310;8.134;2024-02-28T10:38:12;9.00;99.90
3300;DHT22;1662;49.310;8.134;2024-02-28T10:40:42;9.20;99.90
3300;DHT22;1662;49.310;8.134;2024-02-28T10:43:09;9.30;99.90
3300;DHT22;1662;49.310;8.134;2024-02-28T10:45:38;9.50;99.90
3300;DHT22;1662;49.310;8.134;2024-02-28T10:48:07;9.50;99.90
3300;DHT22;1662;49.310;8.134;2024-02-28T10:50:33;9.50;99.90
3300;DHT22;1662;49.310;8.134;2024-02-28T10:53:01;9.70;99.90
3300;DHT22;1662;49.310;8.134;2024-02-28T10:55:33;9.80;99.90
3300;DHT22;1662;49.310;8.134;2024-02-28T10:58:03;9.90;99.90
3300;DHT22;1662;49.310;8.134;2024-02-28T11:00:33;10.00;99.90
3300;DHT22;1662;49.310;8.134;2024-02-28T11:03:03;10.00;99.90
3300;DHT22;1662;49.310;8.134;2024-02-28T11:05:39;10.00;99.90
3300;DHT22;1662;49.310;8.134;2024-02-28T11:08:09;10.00;99.90
3300;DHT22;1662;49.310;8.134;2024-02-28T11:10:39;10.00;99.90
3300;DHT22;1662;49.310;8.134;2024-02-28T11:13:05;10.10;99.90
3300;DHT22;1662;49.310;8.134;2024-02-28T11:15:31;10.20;99.90
3300;DHT22;1662;49.310;8.134;2024-02-28T11:18:07;10.40;99.90
3300;DHT22;1662;49.310;8.134;2024-02-28T11:20:34;10.50;99.90
3300;DHT22;1662;49.310;8.134;2024-02-28T11:23:01;10.50;99.90
3300;DHT22;1662;49.310;8.134;2024-02-28T11:25:26;10.50;99.90
3300;DHT22;1662;49.310;8.134;2024-02-28T11:27:52;10.30;99.90
3300;DHT22;1662;49.310;8.134;2024-02-28T11:30:19;10.20;99.90
3300;DHT22;1662;49.310;8.134;2024-02-28T11:32:45;10.30;99.90
3300;DHT22;1662;49.310;8.134;2024-02-28T11:35:10;10.50;99.90
3300;DHT22;1662;49.310;8.134;2024-02-28T11:37:38;10.70;99.90
3300;DHT22;1662;49.310;8.134;2024-02-28T11:40:07;10.90;99.90
3300;DHT22;1662;49.310;8.134;2024-02-28T11:42:34;10.90;99.90
3300;DHT22;1662;49.310;8.134;2024-02-28T11:45:00;11.00;99.90
3300;DHT22;1662;49.310;8.134;2024-02-28T11:47:29;11.20;99.90
3300;DHT22;1662;49.310;8.134;2024-02-28T11:49:58;11.40;99.90
3300;DHT22;1662;49.310;8.134;2024-02-28T11:52:28;11.50;99.90
3300;DHT22;1662;49.310;8.134;2024-02-28T11:54:53;11.60;99.90
3300;DHT22;1662;49.310;8.134;2024-02-28T11:57:19;11.80;99.90
3300;DHT22;1662;49.310;8.134;2024-02-28T11:59:45;11.90;99.90
3300;DHT22;1662;49.310;8.134;2024-02-28T12:02:12;12.00;99.90
3300;DHT22;1662;49.310;8.134;2024-02-28T12:04:39;12.10;99.90
3300;DHT22;1662;49.310;8.134;2024-02-28T12:07:05;12.30;99.90
3300;DHT22;1662;49.310;8.134;2024-02-28T12:09:31;12.30;99.90
3300;DHT22;1662;49.310;8.134;2024-02-28T12:12:00;12.40;99.90
3300;DHT22;1662;49.310;8.134;2024-02-28T12:14:26;12.50;99.90
3300;DHT22;1662;49.310;8.134;2024-02-28T12:16:52;12.60;99.90
3300;DHT22;1662;49.310;8.134;2024-02-28T12:19:18;12.90;99.90
3300;DHT22;1662;49.310;8.134;2024-02-28T12:21:46;13.40;99.90
3300;DHT22;1662;49.310;8.134;2024-02-28T12:24:11;13.50;99.90
3300;DHT22;1662;49.310;8.134;2024-02-28T12:26:38;13.50;99.90
3300;DHT22;1662;49.310;8.134;2024-02-28T12:29:03;13.40;99.90
3300;DHT22;1662;49.310;8.134;2024-02-28T12:31:29;13.40;99.90
3300;DHT22;1662;49.310;8.134;2024-02-28T12:33:55;13.40;99.90
3300;DHT22;1662;49.310;8.134;2024-02-28T12:36:21;13.50;99.90
3300;DHT22;1662;49.310;8.134;2024-02-28T12:38:47;13.60;99.90
3300;DHT22;1662;49.310;8.134;2024-02-28T12:41:13;13.70;99.90
3300;DHT22;1662;49.310;8.134;2024-02-28T12:43:39;13.90;99.90
3300;DHT22;1662;49.310;8.134;2024-02-28T12:46:05;13.90;99.90
3300;DHT22;1662;49.310;8.134;2024-02-28T12:48:40;13.90;99.90
3300;DHT22;1662;49.310;8.134;2024-02-28T12:51:13;13.90;99.90
3300;DHT22;1662;49.310;8.134;2024-02-28T12:53:45;14.00;99.90
3300;DHT22;1662;49.310;8.134;2024-02-28T12:56:11;14.20;99.90
3300;DHT22;1662;49.310;8.134;2024-02-28T12:58:37;14.30;99.90
3300;DHT22;1662;49.310;8.134;2024-02-28T13:01:03;14.50;99.90
3300;DHT22;1662;49.310;8.134;2024-02-28T13:03:30;14.50;99.90
3300;DHT22;1662;49.310;8.134;2024-02-28T13:05:55;14.70;99.90
3300;DHT22;1662;49.310;8.134;2024-02-28T13:08:21;14.70;99.90
3300;DHT22;1662;49.310;8.134;2024-02-28T13:10:47;14.80;99.90
3300;DHT22;1662;49.310;8.134;2024-02-28T13:13:12;14.90;99.90
3300;DHT22;1662;49.310;8.134;2024-02-28T13:15:39;15.00;99.90
3300;DHT22;1662;49.310;8.134;2024-02-28T13:18:05;15.10;99.90
3300;DHT22;1662;49.310;8.134;2024-02-28T13:20:34;15.10;99.90
3300;DHT22;1662;49.310;8.134;2024-02-28T13:23:00;15.20;99.90
3300;DHT22;1662;49.310;8.134;2024-02-28T13:25:26;15.30;99.90
3300;DHT22;1662;49.310;8.134;2024-02-28T13:27:52;15.40;99.90
3300;DHT22;1662;49.310;8.134;2024-02-28T13:30:17;15.40;99.90
3300;DHT22;1662;49.310;8.134;2024-02-28T13:32:44;15.40;99.90
3300;DHT22;1662;49.310;8.134;2024-02-28T13:35:10;15.40;99.90
3300;DHT22;1662;49.310;8.134;2024-02-28T13:37:36;15.50;99.90
3300;DHT22;1662;49.310;8.134;2024-02-28T13:40:02;15.60;99.90
3300;DHT22;1662;49.310;8.134;2024-02-28T13:42:32;15.70;99.90
3300;DHT22;1662;49.310;8.134;2024-02-28T13:44:58;15.80;99.90
3300;DHT22;1662;49.310;8.134;2024-02-28T13:47:26;15.90;99.90
3300;DHT22;1662;49.310;8.134;2024-02-28T13:49:52;16.00;99.90
3300;DHT22;1662;49.310;8.134;2024-02-28T13:52:17;16.00;99.90
3300;DHT22;1662;49.310;8.134;2024-02-28T13:54:45;16.00;99.90
3300;DHT22;1662;49.310;8.134;2024-02-28T13:57:12;16.00;99.90
3300;DHT22;1662;49.310;8.134;2024-02-28T13:59:38;16.10;99.90
3300;DHT22;1662;49.310;8.134;2024-02-28T14:02:04;16.20;99.90
3300;DHT22;1662;49.310;8.134;2024-02-28T14:04:29;16.20;99.90
3300;DHT22;1662;49.310;8.134;2024-02-28T14:06:55;16.30;99.90
3300;DHT22;1662;49.310;8.134;2024-02-28T14:09:21;16.30;99.90
3300;DHT22;1662;49.310;8.134;2024-02-28T14:11:47;16.50;99.90
3300;DHT22;1662;49.310;8.134;2024-02-28T14:14:13;16.60;99.90
3300;DHT22;1662;49.310;8.134;2024-02-28T14:16:40;16.50;99.90
3300;DHT22;1662;49.310;8.134;2024-02-28T14:19:06;16.40;99.90
3300;DHT22;1662;49.310;8.134;2024-02-28T14:21:31;16.40;99.90
3300;DHT22;1662;49.310;8.134;2024-02-28T14:23:58;16.50;99.90
3300;DHT22;1662;49.310;8.134;2024-02-28T14:26:24;16.40;99.90
3300;DHT22;1662;49.310;8.134;2024-02-28T14:28:49;16.40;99.80
3300;DHT22;1662;49.310;8.134;2024-02-28T14:31:15;16.30;99.10
3300;DHT22;1662;49.310;8.134;2024-02-28T14:33:41;16.10;99.90
3300;DHT22;1662;49.310;8.134;2024-02-28T14:36:06;16.10;99.60
3300;DHT22;1662;49.310;8.134;2024-02-28T14:38:32;16.10;99.60
3300;DHT22;1662;49.310;8.134;2024-02-28T14:40:58;16.10;99.70
3300;DHT22;1662;49.310;8.134;2024-02-28T14:43:23;16.20;98.80
3300;DHT22;1662;49.310;8.134;2024-02-28T14:45:49;16.30;98.30
3300;DHT22;1662;49.310;8.134;2024-02-28T14:48:17;16.20;98.40
3300;DHT22;1662;49.310;8.134;2024-02-28T14:50:45;16.10;98.20
3300;DHT22;1662;49.310;8.134;2024-02-28T14:53:11;15.90;99.20
3300;DHT22;1662;49.310;8.134;2024-02-28T14:55:36;15.90;99.30
3300;DHT22;1662;49.310;8.134;2024-02-28T14:58:02;15.70;98.70
3300;DHT22;1662;49.310;8.134;2024-02-28T15:00:28;15.50;98.00
3300;DHT22;1662;49.310;8.134;2024-02-28T15:02:54;15.30;99.30
3300;DHT22;1662;49.310;8.134;2024-02-28T15:05:19;15.30;99.70
3300;DHT22;1662;49.310;8.134;2024-02-28T15:07:45;15.30;99.30
3300;DHT22;1662;49.310;8.134;2024-02-28T15:10:10;15.30;98.90
3300;DHT22;1662;49.310;8.134;2024-02-28T15:12:36;15.40;98.40
3300;DHT22;1662;49.310;8.134;2024-02-28T15:15:03;15.50;98.20
3300;DHT22;1662;49.310;8.134;2024-02-28T15:17:30;15.50;97.40
3300;DHT22;1662;49.310;8.134;2024-02-28T15:19:55;15.50;98.90
3300;DHT22;1662;49.310;8.134;2024-02-28T15:22:21;15.40;97.80
3300;DHT22;1662;49.310;8.134;2024-02-28T15:24:47;15.30;98.70
3300;DHT22;1662;49.310;8.134;2024-02-28T15:27:13;15.40;98.60
3300;DHT22;1662;49.310;8.134;2024-02-28T15:29:39;15.40;98.90
3300;DHT22;1662;49.310;8.134;2024-02-28T15:32:05;15.20;98.40
3300;DHT22;1662;49.310;8.134;2024-02-28T15:34:31;15.00;99.40
3300;DHT22;1662;49.310;8.134;2024-02-28T15:36:59;14.80;99.60
3300;DHT22;1662;49.310;8.134;2024-02-28T15:39:24;14.70;99.90
3300;DHT22;1662;49.310;8.134;2024-02-28T15:41:50;14.60;99.90
3300;DHT22;1662;49.310;8.134;2024-02-28T15:44:17;14.40;99.70
3300;DHT22;1662;49.310;8.134;2024-02-28T15:46:43;14.20;99.70
3300;DHT22;1662;49.310;8.134;2024-02-28T15:49:09;14.10;98.90
3300;DHT22;1662;49.310;8.134;2024-02-28T15:51:34;13.90;97.80
3300;DHT22;1662;49.310;8.134;2024-02-28T15:54:01;13.80;97.20
3300;DHT22;1662;49.310;8.134;2024-02-28T15:56:27;13.60;97.60
3300;DHT22;1662;49.310;8.134;2024-02-28T15:58:52;13.50;98.20
3300;DHT22;1662;49.310;8.134;2024-02-28T16:01:18;13.50;98.40
3300;DHT22;1662;49.310;8.134;2024-02-28T16:03:44;13.50;98.20
3300;DHT22;1662;49.310;8.134;2024-02-28T16:06:09;13.40;97.40
3300;DHT22;1662;49.310;8.134;2024-02-28T16:08:42;13.30;97.30